createdAt,value
2019-03-27T00:03:43.221Z,5.08
2019-03-27T00:08:47.547Z,8.58
2019-03-27T00:13:52.121Z,5.33
2019-03-27T00:24:01.450Z,5.95
2019-03-27T00:29:05.727Z,13.48
2019-03-27T00:34:12.740Z,10.75
2019-03-27T00:39:17.550Z,8.98
2019-03-27T00:44:25.011Z,12.88
2019-03-27T00:49:29.770Z,13.22
2019-03-27T00:54:34.337Z,11.10
2019-03-27T01:04:42.983Z,10.80
2019-03-27T01:14:50.925Z,7.72
2019-03-27T01:19:55.224Z,12.82
2019-03-27T01:24:59.791Z,23.95
2019-03-27T01:35:07.447Z,11.22
2019-03-27T01:40:12.098Z,12.85
2019-03-27T01:45:16.418Z,13.48
2019-03-27T01:50:21.108Z,13.45
2019-03-27T01:55:25.859Z,17.35
2019-03-27T02:00:30.458Z,16.27
2019-03-27T02:10:38.295Z,13.35
2019-03-27T02:15:42.668Z,23.65
2019-03-27T02:20:47.080Z,14.30
2019-03-27T02:25:51.423Z,24.87
2019-03-27T02:30:55.802Z,17.50
2019-03-27T02:36:00.366Z,13.78
2019-03-27T02:46:23.761Z,13.03
2019-03-27T02:51:15.254Z,15.40
2019-03-27T02:56:19.893Z,15.95
2019-03-27T03:06:27.657Z,10.13
2019-03-27T03:16:42.824Z,12.93
2019-03-27T03:21:41.796Z,10.45
2019-03-27T03:31:53.375Z,15.68
2019-03-27T03:36:58.061Z,14.98
2019-03-27T03:42:02.980Z,15.75
2019-03-27T03:47:07.406Z,18.00
2019-03-27T03:52:12.059Z,14.85
2019-03-27T04:02:20.031Z,20.10
2019-03-27T04:07:25.072Z,16.25
2019-03-27T04:12:29.361Z,16.30
2019-03-27T04:17:33.629Z,20.77
2019-03-27T04:22:38.109Z,20.68
2019-03-27T04:27:42.739Z,21.33
2019-03-27T04:37:50.259Z,21.75
2019-03-27T04:42:54.842Z,25.68
2019-03-27T04:53:02.667Z,23.20
2019-03-27T04:58:07.146Z,21.60
2019-03-27T05:03:13.134Z,15.85
2019-03-27T05:08:17.462Z,21.77
2019-03-27T05:13:21.709Z,22.10
2019-03-27T05:18:26.261Z,22.60
2019-03-27T05:28:36.256Z,25.53
2019-03-27T05:33:40.902Z,21.00
2019-03-27T05:38:46.890Z,21.00
2019-03-27T05:43:51.157Z,22.87
2019-03-27T05:48:55.586Z,25.20
2019-03-27T05:54:00.199Z,28.70
2019-03-27T06:04:08.514Z,32.15
2019-03-27T06:09:13.134Z,23.95
2019-03-27T06:19:20.766Z,27.73
2019-03-27T06:24:25.127Z,28.47
2019-03-27T06:29:29.530Z,25.88
2019-03-27T06:34:44.667Z,34.10
2019-03-27T06:39:48.944Z,34.80
2019-03-27T06:44:53.261Z,41.85
2019-03-27T06:49:57.608Z,39.55
2019-03-27T06:55:02.202Z,28.83
2019-03-27T07:05:12.845Z,35.35
2019-03-27T07:10:17.113Z,49.08
2019-03-27T07:15:21.761Z,37.48
2019-03-27T07:20:26.196Z,36.65
2019-03-27T07:25:30.582Z,32.38
2019-03-27T07:30:34.965Z,32.30
2019-03-27T07:35:39.775Z,36.30
2019-03-27T07:40:44.161Z,24.37
2019-03-27T07:45:48.506Z,30.43
2019-03-27T07:50:53.172Z,37.10
2019-03-27T08:01:01.491Z,28.45
2019-03-27T08:06:05.892Z,24.65
2019-03-27T08:11:10.465Z,30.92
2019-03-27T08:21:18.359Z,25.02
2019-03-27T08:26:23.092Z,18.00
2019-03-27T08:31:27.906Z,25.45
2019-03-27T08:36:32.238Z,21.70
2019-03-27T08:41:36.837Z,20.70
2019-03-27T08:46:41.683Z,30.05
2019-03-27T08:51:46.960Z,17.07
2019-03-27T08:56:51.247Z,16.52
2019-03-27T09:01:55.926Z,26.42
2019-03-27T09:12:05.264Z,10.75
2019-03-27T09:17:09.581Z,13.80
2019-03-27T09:22:14.279Z,22.07
2019-03-27T09:27:18.638Z,12.70
2019-03-27T09:32:23.211Z,17.62
2019-03-27T09:37:27.784Z,15.10
2019-03-27T09:42:32.128Z,14.05
2019-03-27T09:47:36.508Z,16.73
2019-03-27T09:52:40.792Z,13.00
2019-03-27T09:57:45.161Z,13.10
2019-03-27T10:02:49.762Z,12.43
2019-03-27T10:07:55.582Z,16.97
2019-03-27T10:12:59.886Z,11.08
2019-03-27T10:18:04.312Z,16.17
2019-03-27T10:23:13.050Z,26.25
2019-03-27T10:28:17.368Z,18.42
2019-03-27T10:33:23.867Z,20.60
2019-03-27T10:38:28.468Z,32.48
2019-03-27T10:43:32.805Z,35.63
2019-03-27T10:48:37.127Z,35.92
2019-03-27T10:53:41.483Z,31.70
2019-03-27T10:58:45.797Z,28.42
2019-03-27T11:03:50.164Z,24.30
2019-03-27T11:08:54.710Z,27.45
2019-03-27T11:13:59.000Z,26.55
2019-03-27T11:19:03.577Z,27.70
2019-03-27T11:24:07.819Z,23.83
2019-03-27T11:29:12.107Z,18.62
2019-03-27T11:34:16.687Z,20.82
2019-03-27T11:39:21.023Z,17.00
2019-03-27T11:44:25.290Z,24.87
2019-03-27T11:49:30.309Z,19.15
2019-03-27T11:54:34.680Z,19.20
2019-03-27T11:59:53.000Z,16.62
2019-03-27T12:04:45.901Z,11.22
2019-03-27T12:09:50.523Z,14.10
2019-03-27T12:14:54.938Z,16.07
2019-03-27T12:20:00.235Z,14.43
2019-03-27T12:25:07.598Z,12.33
2019-03-27T12:30:12.027Z,10.85
2019-03-27T12:35:16.535Z,9.38
2019-03-27T12:40:20.821Z,8.20
2019-03-27T12:45:25.899Z,5.45
2019-03-27T12:50:30.209Z,6.00
2019-03-27T12:55:35.508Z,6.65
2019-03-27T13:00:42.482Z,3.75
2019-03-27T13:05:46.936Z,5.28
2019-03-27T13:10:51.223Z,4.28
2019-03-27T13:15:55.509Z,5.17
2019-03-27T13:20:59.790Z,3.67
2019-03-27T13:26:04.351Z,7.00
2019-03-27T13:31:09.073Z,3.30
2019-03-27T13:41:18.467Z,8.05
2019-03-27T13:46:22.582Z,7.05
2019-03-27T13:51:39.767Z,4.60
2019-03-27T13:56:33.259Z,5.45
2019-03-27T14:01:37.871Z,7.12
2019-03-27T14:06:44.736Z,3.65
2019-03-27T14:11:48.875Z,5.92
2019-03-27T14:16:53.190Z,6.03
2019-03-27T14:21:59.844Z,5.53
2019-03-27T14:27:07.197Z,9.28
2019-03-27T14:32:11.492Z,6.42
2019-03-27T14:37:15.826Z,9.28
2019-03-27T14:42:20.132Z,5.33
2019-03-27T14:47:24.462Z,6.97
2019-03-27T14:52:28.986Z,3.92
2019-03-27T14:57:34.073Z,4.10
2019-03-27T15:02:39.082Z,9.03
2019-03-27T15:07:44.230Z,6.05
2019-03-27T15:12:48.539Z,5.50
2019-03-27T15:17:52.871Z,6.62
2019-03-27T15:22:57.272Z,8.18
2019-03-27T15:28:01.956Z,7.30
2019-03-27T15:38:09.980Z,3.52
2019-03-27T15:43:14.251Z,4.35
2019-03-27T15:48:18.973Z,4.47
2019-03-27T15:58:26.883Z,7.78
2019-03-27T16:03:31.188Z,7.75
2019-03-27T16:08:35.820Z,8.33
2019-03-27T16:13:41.306Z,8.65
2019-03-27T16:18:46.106Z,6.17
2019-03-27T16:28:54.315Z,6.20
2019-03-27T16:39:02.153Z,9.78
2019-03-27T16:44:06.497Z,7.75
2019-03-27T16:49:11.342Z,6.33
2019-03-27T16:54:15.807Z,5.42
2019-03-27T16:59:20.144Z,8.80
2019-03-27T17:04:25.325Z,7.70
2019-03-27T17:09:29.819Z,7.08
2019-03-27T17:14:34.278Z,7.03
2019-03-27T17:19:38.911Z,6.47
2019-03-27T17:24:43.214Z,8.10
2019-03-27T17:29:47.833Z,6.58
2019-03-27T17:34:52.178Z,11.03
2019-03-27T17:39:57.365Z,5.83
2019-03-27T17:45:01.754Z,9.38
2019-03-27T17:50:06.339Z,5.85
2019-03-27T17:55:11.122Z,6.65
2019-03-27T18:00:20.867Z,6.00
2019-03-27T18:05:26.476Z,10.20
2019-03-27T18:10:31.122Z,7.35
2019-03-27T18:15:35.691Z,8.90
2019-03-27T18:20:40.052Z,6.12
2019-03-27T18:25:44.762Z,8.65
2019-03-27T18:30:49.663Z,6.95
2019-03-27T18:35:54.409Z,8.48
2019-03-27T18:46:02.842Z,6.85
2019-03-27T18:51:07.187Z,10.38
2019-03-27T18:56:12.171Z,9.70
2019-03-27T19:01:16.467Z,13.83
2019-03-27T19:06:20.857Z,14.38
2019-03-27T19:11:25.218Z,9.68
2019-03-27T19:16:29.984Z,10.08
2019-03-27T19:26:37.872Z,5.70
2019-03-27T19:31:42.252Z,7.10
2019-03-27T19:36:46.620Z,5.50
2019-03-27T19:42:01.344Z,8.25
2019-03-27T19:47:06.835Z,9.05
2019-03-27T19:52:11.140Z,11.38
2019-03-27T19:57:15.515Z,9.13
2019-03-27T20:02:19.918Z,8.20
2019-03-27T20:07:35.375Z,6.78
2019-03-27T20:12:30.597Z,16.70
2019-03-27T20:17:35.672Z,10.15
2019-03-27T20:22:40.224Z,6.92
2019-03-27T20:27:45.484Z,8.83
2019-03-27T20:32:50.100Z,12.40
2019-03-27T20:37:54.709Z,10.95
2019-03-27T20:42:59.053Z,9.05
2019-03-27T20:48:03.364Z,6.62
2019-03-27T20:53:07.951Z,12.93
2019-03-27T20:58:12.417Z,7.75
2019-03-27T21:03:22.112Z,10.00
2019-03-27T21:08:28.759Z,8.95
2019-03-27T21:13:35.881Z,16.65
2019-03-27T21:18:40.388Z,10.13
2019-03-27T21:23:47.920Z,12.25
2019-03-27T21:28:54.408Z,10.98
2019-03-27T21:33:59.752Z,8.48
2019-03-27T21:39:08.043Z,12.07
2019-03-27T21:44:13.508Z,7.65
2019-03-27T21:49:18.246Z,9.98
2019-03-27T21:59:26.498Z,8.73
2019-03-27T22:04:32.059Z,11.97
2019-03-27T22:09:37.044Z,17.00
2019-03-27T22:14:43.323Z,11.00
2019-03-27T22:19:48.098Z,18.42
2019-03-27T22:29:56.205Z,14.90
2019-03-27T22:35:02.668Z,13.48
2019-03-27T22:40:08.804Z,12.58
2019-03-27T22:45:13.158Z,9.70
2019-03-27T22:50:17.805Z,14.33
2019-03-27T23:00:37.729Z,14.10
2019-03-27T23:05:42.135Z,13.22
2019-03-27T23:10:46.857Z,11.60
2019-03-27T23:20:54.927Z,12.82
2019-03-27T23:26:03.336Z,15.75
2019-03-27T23:31:05.794Z,13.18
2019-03-27T23:36:10.283Z,17.23
2019-03-27T23:41:18.203Z,14.55
2019-03-27T23:46:23.433Z,11.25
2019-03-27T23:51:27.799Z,10.80
2019-03-27T23:56:33.821Z,11.22
